sensor_id;sensor_type;location;lat;lon;timestamp;temperature;humidity
17495;DHT22;8864;51.970;4.614;2023-08-17T00:00:53;25.40;67.20
17495;DHT22;8864;51.970;4.614;2023-08-17T00:03:21;25.30;67.10
17495;DHT22;8864;51.970;4.614;2023-08-17T00:05:48;25.40;67.20
17495;DHT22;8864;51.970;4.614;2023-08-17T00:08:15;25.40;67.20
17495;DHT22;8864;51.970;4.614;2023-08-17T00:10:43;25.40;67.20
17495;DHT22;8864;51.970;4.614;2023-08-17T00:13:09;25.40;67.20
17495;DHT22;8864;51.970;4.614;2023-08-17T00:15:37;25.30;67.00
17495;DHT22;8864;51.970;4.614;2023-08-17T00:18:04;25.40;67.20
17495;DHT22;8864;51.970;4.614;2023-08-17T00:20:33;25.30;67.00
17495;DHT22;8864;51.970;4.614;2023-08-17T00:23:00;25.30;67.30
17495;DHT22;8864;51.970;4.614;2023-08-17T00:25:27;25.30;67.00
17495;DHT22;8864;51.970;4.614;2023-08-17T00:27:54;25.30;67.00
17495;DHT22;8864;51.970;4.614;2023-08-17T00:30:21;25.30;67.00
17495;DHT22;8864;51.970;4.614;2023-08-17T00:32:47;25.30;67.00
17495;DHT22;8864;51.970;4.614;2023-08-17T00:35:15;25.30;67.00
17495;DHT22;8864;51.970;4.614;2023-08-17T00:37:43;25.30;67.00
17495;DHT22;8864;51.970;4.614;2023-08-17T00:40:10;25.30;67.00
17495;DHT22;8864;51.970;4.614;2023-08-17T00:42:37;25.30;67.00
17495;DHT22;8864;51.970;4.614;2023-08-17T00:45:05;25.20;66.90
17495;DHT22;8864;51.970;4.614;2023-08-17T00:47:32;25.30;67.00
17495;DHT22;8864;51.970;4.614;2023-08-17T00:50:00;25.30;67.00
17495;DHT22;8864;51.970;4.614;2023-08-17T00:52:27;25.30;67.00
17495;DHT22;8864;51.970;4.614;2023-08-17T00:54:57;25.30;66.90
17495;DHT22;8864;51.970;4.614;2023-08-17T00:57:24;25.30;67.00
17495;DHT22;8864;51.970;4.614;2023-08-17T00:59:51;25.30;66.90
17495;DHT22;8864;51.970;4.614;2023-08-17T01:02:18;25.30;67.00
17495;DHT22;8864;51.970;4.614;2023-08-17T01:04:45;25.30;67.00
17495;DHT22;8864;51.970;4.614;2023-08-17T01:07:12;25.30;67.00
17495;DHT22;8864;51.970;4.614;2023-08-17T01:09:39;25.30;67.00
17495;DHT22;8864;51.970;4.614;2023-08-17T01:12:13;25.30;67.00
17495;DHT22;8864;51.970;4.614;2023-08-17T01:14:50;25.20;66.90
17495;DHT22;8864;51.970;4.614;2023-08-17T01:17:21;25.20;66.90
17495;DHT22;8864;51.970;4.614;2023-08-17T01:19:49;25.20;66.90
17495;DHT22;8864;51.970;4.614;2023-08-17T01:22:17;25.20;66.90
17495;DHT22;8864;51.970;4.614;2023-08-17T01:24:49;25.20;66.90
17495;DHT22;8864;51.970;4.614;2023-08-17T01:27:15;25.20;66.90
17495;DHT22;8864;51.970;4.614;2023-08-17T01:29:42;25.20;66.80
17495;DHT22;8864;51.970;4.614;2023-08-17T01:32:12;25.20;67.00
17495;DHT22;8864;51.970;4.614;2023-08-17T01:34:47;25.20;66.80
17495;DHT22;8864;51.970;4.614;2023-08-17T01:37:19;25.20;66.80
17495;DHT22;8864;51.970;4.614;2023-08-17T01:39:52;25.20;67.00
17495;DHT22;8864;51.970;4.614;2023-08-17T01:42:22;25.20;67.00
17495;DHT22;8864;51.970;4.614;2023-08-17T01:44:50;25.20;67.00
17495;DHT22;8864;51.970;4.614;2023-08-17T01:47:20;25.20;67.00
17495;DHT22;8864;51.970;4.614;2023-08-17T01:49:47;25.20;67.00
17495;DHT22;8864;51.970;4.614;2023-08-17T01:52:14;25.20;67.00
17495;DHT22;8864;51.970;4.614;2023-08-17T01:54:41;25.20;67.00
17495;DHT22;8864;51.970;4.614;2023-08-17T01:57:09;25.20;66.90
17495;DHT22;8864;51.970;4.614;2023-08-17T01:59:36;25.20;67.00
17495;DHT22;8864;51.970;4.614;2023-08-17T02:02:03;25.20;67.00
17495;DHT22;8864;51.970;4.614;2023-08-17T02:04:30;25.20;67.00
17495;DHT22;8864;51.970;4.614;2023-08-17T02:06:57;25.20;67.00
17495;DHT22;8864;51.970;4.614;2023-08-17T02:09:23;25.20;66.80
17495;DHT22;8864;51.970;4.614;2023-08-17T02:11:50;25.20;66.80
17495;DHT22;8864;51.970;4.614;2023-08-17T02:14:19;25.20;66.90
17495;DHT22;8864;51.970;4.614;2023-08-17T02:16:45;25.20;66.80
17495;DHT22;8864;51.970;4.614;2023-08-17T02:19:12;25.20;66.80
17495;DHT22;8864;51.970;4.614;2023-08-17T02:21:39;25.20;66.90
17495;DHT22;8864;51.970;4.614;2023-08-17T02:24:06;25.20;66.90
17495;DHT22;8864;51.970;4.614;2023-08-17T02:26:33;25.10;66.80
17495;DHT22;8864;51.970;4.614;2023-08-17T02:29:00;25.10;66.90
17495;DHT22;8864;51.970;4.614;2023-08-17T02:31:28;25.10;66.80
17495;DHT22;8864;51.970;4.614;2023-08-17T02:33:55;25.10;66.80
17495;DHT22;8864;51.970;4.614;2023-08-17T02:36:26;25.10;66.90
17495;DHT22;8864;51.970;4.614;2023-08-17T02:38:53;25.10;66.80
17495;DHT22;8864;51.970;4.614;2023-08-17T02:41:19;25.10;66.70
17495;DHT22;8864;51.970;4.614;2023-08-17T02:43:46;25.10;66.80
17495;DHT22;8864;51.970;4.614;2023-08-17T02:46:13;25.10;66.80
17495;DHT22;8864;51.970;4.614;2023-08-17T02:48:42;25.10;66.80
17495;DHT22;8864;51.970;4.614;2023-08-17T02:51:09;25.10;66.80
17495;DHT22;8864;51.970;4.614;2023-08-17T02:53:35;25.10;66.80
17495;DHT22;8864;51.970;4.614;2023-08-17T02:56:03;25.10;66.90
17495;DHT22;8864;51.970;4.614;2023-08-17T02:58:30;25.10;66.90
17495;DHT22;8864;51.970;4.614;2023-08-17T03:00:56;25.10;66.90
17495;DHT22;8864;51.970;4.614;2023-08-17T03:03:23;25.10;66.90
17495;DHT22;8864;51.970;4.614;2023-08-17T03:05:52;25.10;66.90
17495;DHT22;8864;51.970;4.614;2023-08-17T03:08:19;25.00;66.80
17495;DHT22;8864;51.970;4.614;2023-08-17T03:10:46;25.00;66.90
17495;DHT22;8864;51.970;4.614;2023-08-17T03:13:14;25.00;66.90
17495;DHT22;8864;51.970;4.614;2023-08-17T03:15:41;25.00;66.90
17495;DHT22;8864;51.970;4.614;2023-08-17T03:18:08;25.00;66.90
17495;DHT22;8864;51.970;4.614;2023-08-17T03:20:35;25.00;66.80
17495;DHT22;8864;51.970;4.614;2023-08-17T03:23:04;25.00;66.90
17495;DHT22;8864;51.970;4.614;2023-08-17T03:25:32;25.00;66.90
17495;DHT22;8864;51.970;4.614;2023-08-17T03:27:59;25.00;66.90
17495;DHT22;8864;51.970;4.614;2023-08-17T03:30:26;25.00;66.90
17495;DHT22;8864;51.970;4.614;2023-08-17T03:32:53;25.00;66.90
17495;DHT22;8864;51.970;4.614;2023-08-17T03:35:20;25.00;66.90
17495;DHT22;8864;51.970;4.614;2023-08-17T03:37:47;25.00;66.90
17495;DHT22;8864;51.970;4.614;2023-08-17T03:40:15;25.00;66.90
17495;DHT22;8864;51.970;4.614;2023-08-17T03:42:42;25.00;66.90
17495;DHT22;8864;51.970;4.614;2023-08-17T03:45:10;25.00;66.90
17495;DHT22;8864;51.970;4.614;2023-08-17T03:47:36;25.00;66.90
17495;DHT22;8864;51.970;4.614;2023-08-17T03:50:04;25.00;66.90
17495;DHT22;8864;51.970;4.614;2023-08-17T03:52:31;25.00;66.90
17495;DHT22;8864;51.970;4.614;2023-08-17T03:54:58;25.00;66.90
17495;DHT22;8864;51.970;4.614;2023-08-17T03:57:26;25.00;66.90
17495;DHT22;8864;51.970;4.614;2023-08-17T03:59:53;25.00;66.90
17495;DHT22;8864;51.970;4.614;2023-08-17T04:02:20;25.00;66.90
17495;DHT22;8864;51.970;4.614;2023-08-17T04:04:47;25.00;66.90
17495;DHT22;8864;51.970;4.614;2023-08-17T04:07:20;25.00;66.90
17495;DHT22;8864;51.970;4.614;2023-08-17T04:09:48;25.00;66.90
17495;DHT22;8864;51.970;4.614;2023-08-17T04:12:14;25.00;67.00
17495;DHT22;8864;51.970;4.614;2023-08-17T04:14:43;25.00;67.00
17495;DHT22;8864;51.970;4.614;2023-08-17T04:17:09;25.00;66.90
17495;DHT22;8864;51.970;4.614;2023-08-17T04:19:36;24.90;66.90
17495;DHT22;8864;51.970;4.614;2023-08-17T04:22:03;25.00;67.00
17495;DHT22;8864;51.970;4.614;2023-08-17T04:24:30;25.00;67.00
17495;DHT22;8864;51.970;4.614;2023-08-17T04:26:57;25.00;67.00
17495;DHT22;8864;51.970;4.614;2023-08-17T04:29:24;24.90;67.00
17495;DHT22;8864;51.970;4.614;2023-08-17T04:31:53;24.90;67.00
17495;DHT22;8864;51.970;4.614;2023-08-17T04:34:20;24.90;67.00
17495;DHT22;8864;51.970;4.614;2023-08-17T04:36:47;24.90;67.00
17495;DHT22;8864;51.970;4.614;2023-08-17T04:39:14;24.90;67.00
17495;DHT22;8864;51.970;4.614;2023-08-17T04:41:41;24.90;67.00
17495;DHT22;8864;51.970;4.614;2023-08-17T04:44:07;24.90;67.00
17495;DHT22;8864;51.970;4.614;2023-08-17T04:46:35;24.90;67.00
17495;DHT22;8864;51.970;4.614;2023-08-17T04:49:03;24.90;67.00
17495;DHT22;8864;51.970;4.614;2023-08-17T04:51:31;24.90;67.00
17495;DHT22;8864;51.970;4.614;2023-08-17T04:54:01;24.90;67.00
17495;DHT22;8864;51.970;4.614;2023-08-17T04:56:28;24.90;67.00
17495;DHT22;8864;51.970;4.614;2023-08-17T04:58:55;24.90;66.90
17495;DHT22;8864;51.970;4.614;2023-08-17T05:01:22;24.90;67.00
17495;DHT22;8864;51.970;4.614;2023-08-17T05:03:49;24.90;66.90
17495;DHT22;8864;51.970;4.614;2023-08-17T05:06:18;24.90;66.90
17495;DHT22;8864;51.970;4.614;2023-08-17T05:08:45;24.90;66.90
17495;DHT22;8864;51.970;4.614;2023-08-17T05:11:12;24.90;67.00
17495;DHT22;8864;51.970;4.614;2023-08-17T05:13:39;24.90;67.00
17495;DHT22;8864;51.970;4.614;2023-08-17T05:16:06;24.80;66.90
17495;DHT22;8864;51.970;4.614;2023-08-17T05:18:33;24.90;67.00
17495;DHT22;8864;51.970;4.614;2023-08-17T05:21:00;24.90;67.00
17495;DHT22;8864;51.970;4.614;2023-08-17T05:23:28;24.90;67.00
17495;DHT22;8864;51.970;4.614;2023-08-17T05:25:55;24.90;67.00
17495;DHT22;8864;51.970;4.614;2023-08-17T05:28:22;24.90;66.90
17495;DHT22;8864;51.970;4.614;2023-08-17T05:30:49;24.90;67.70
17495;DHT22;8864;51.970;4.614;2023-08-17T05:33:16;24.90;66.90
17495;DHT22;8864;51.970;4.614;2023-08-17T05:35:43;24.90;67.00
17495;DHT22;8864;51.970;4.614;2023-08-17T05:38:10;24.90;66.90
17495;DHT22;8864;51.970;4.614;2023-08-17T05:40:38;24.90;67.00
17495;DHT22;8864;51.970;4.614;2023-08-17T05:43:05;24.90;67.00
17495;DHT22;8864;51.970;4.614;2023-08-17T05:45:32;24.90;67.00
17495;DHT22;8864;51.970;4.614;2023-08-17T05:48:02;24.90;66.90
17495;DHT22;8864;51.970;4.614;2023-08-17T05:50:29;24.90;67.70
17495;DHT22;8864;51.970;4.614;2023-08-17T05:52:57;24.90;67.00
17495;DHT22;8864;51.970;4.614;2023-08-17T05:55:24;24.90;67.00
17495;DHT22;8864;51.970;4.614;2023-08-17T05:57:52;24.80;66.90
17495;DHT22;8864;51.970;4.614;2023-08-17T06:00:19;24.90;67.00
17495;DHT22;8864;51.970;4.614;2023-08-17T06:02:46;24.90;67.00
17495;DHT22;8864;51.970;4.614;2023-08-17T06:05:15;24.90;67.00
17495;DHT22;8864;51.970;4.614;2023-08-17T06:07:42;24.90;66.90
17495;DHT22;8864;51.970;4.614;2023-08-17T06:10:10;24.90;66.90
17495;DHT22;8864;51.970;4.614;2023-08-17T06:12:37;24.90;66.90
17495;DHT22;8864;51.970;4.614;2023-08-17T06:15:06;24.90;66.90
17495;DHT22;8864;51.970;4.614;2023-08-17T06:17:33;24.90;66.90
17495;DHT22;8864;51.970;4.614;2023-08-17T06:20:00;24.90;66.80
17495;DHT22;8864;51.970;4.614;2023-08-17T06:22:29;24.90;66.90
17495;DHT22;8864;51.970;4.614;2023-08-17T06:24:55;24.80;66.80
17495;DHT22;8864;51.970;4.614;2023-08-17T06:27:22;24.90;66.90
17495;DHT22;8864;51.970;4.614;2023-08-17T06:29:49;24.90;66.90
17495;DHT22;8864;51.970;4.614;2023-08-17T06:32:18;24.90;67.00
17495;DHT22;8864;51.970;4.614;2023-08-17T06:34:45;24.90;67.00
17495;DHT22;8864;51.970;4.614;2023-08-17T06:37:12;24.90;66.90
17495;DHT22;8864;51.970;4.614;2023-08-17T06:39:38;24.90;66.90
17495;DHT22;8864;51.970;4.614;2023-08-17T06:42:05;24.90;66.90
17495;DHT22;8864;51.970;4.614;2023-08-17T06:44:32;24.90;67.00
17495;DHT22;8864;51.970;4.614;2023-08-17T06:46:59;24.90;67.00
17495;DHT22;8864;51.970;4.614;2023-08-17T06:49:27;24.90;66.90
17495;DHT22;8864;51.970;4.614;2023-08-17T06:51:54;24.90;66.90
17495;DHT22;8864;51.970;4.614;2023-08-17T06:54:21;24.90;67.00
17495;DHT22;8864;51.970;4.614;2023-08-17T06:56:48;24.90;66.90
17495;DHT22;8864;51.970;4.614;2023-08-17T06:59:15;24.90;66.80
17495;DHT22;8864;51.970;4.614;2023-08-17T07:01:42;24.90;66.80
17495;DHT22;8864;51.970;4.614;2023-08-17T07:04:09;24.90;66.90
17495;DHT22;8864;51.970;4.614;2023-08-17T07:06:37;24.90;66.80
17495;DHT22;8864;51.970;4.614;2023-08-17T07:09:04;24.90;66.90
17495;DHT22;8864;51.970;4.614;2023-08-17T07:11:31;24.90;66.80
17495;DHT22;8864;51.970;4.614;2023-08-17T07:13:58;24.90;66.80
17495;DHT22;8864;51.970;4.614;2023-08-17T07:16:25;24.90;66.80
17495;DHT22;8864;51.970;4.614;2023-08-17T07:18:52;24.90;66.80
17495;DHT22;8864;51.970;4.614;2023-08-17T07:21:19;24.90;66.80
17495;DHT22;8864;51.970;4.614;2023-08-17T07:23:47;24.90;66.90
17495;DHT22;8864;51.970;4.614;2023-08-17T07:26:14;24.90;66.90
17495;DHT22;8864;51.970;4.614;2023-08-17T07:28:41;24.90;66.90
17495;DHT22;8864;51.970;4.614;2023-08-17T07:31:08;24.90;66.90
17495;DHT22;8864;51.970;4.614;2023-08-17T07:33:35;24.90;66.90
17495;DHT22;8864;51.970;4.614;2023-08-17T07:36:02;24.90;66.90
17495;DHT22;8864;51.970;4.614;2023-08-17T07:38:30;24.90;67.00
17495;DHT22;8864;51.970;4.614;2023-08-17T07:40:58;24.90;67.00
17495;DHT22;8864;51.970;4.614;2023-08-17T07:43:25;24.90;67.00
17495;DHT22;8864;51.970;4.614;2023-08-17T07:45:55;24.90;67.00
17495;DHT22;8864;51.970;4.614;2023-08-17T07:48:22;24.90;67.00
17495;DHT22;8864;51.970;4.614;2023-08-17T07:50:50;24.90;67.10
17495;DHT22;8864;51.970;4.614;2023-08-17T07:53:17;24.90;67.10
17495;DHT22;8864;51.970;4.614;2023-08-17T07:55:44;24.90;67.10
17495;DHT22;8864;51.970;4.614;2023-08-17T07:58:12;24.90;67.10
17495;DHT22;8864;51.970;4.614;2023-08-17T08:00:39;24.90;67.10
17495;DHT22;8864;51.970;4.614;2023-08-17T08:03:06;24.90;67.10
17495;DHT22;8864;51.970;4.614;2023-08-17T08:05:33;24.90;67.10
17495;DHT22;8864;51.970;4.614;2023-08-17T08:08:00;24.90;67.10
17495;DHT22;8864;51.970;4.614;2023-08-17T08:10:27;24.90;67.10
17495;DHT22;8864;51.970;4.614;2023-08-17T08:12:54;24.90;67.20
17495;DHT22;8864;51.970;4.614;2023-08-17T08:15:23;24.90;67.20
17495;DHT22;8864;51.970;4.614;2023-08-17T08:17:50;24.90;67.20
17495;DHT22;8864;51.970;4.614;2023-08-17T08:20:17;24.90;67.30
17495;DHT22;8864;51.970;4.614;2023-08-17T08:22:44;24.90;67.30
17495;DHT22;8864;51.970;4.614;2023-08-17T08:25:10;24.90;67.20
17495;DHT22;8864;51.970;4.614;2023-08-17T08:27:37;24.90;67.20
17495;DHT22;8864;51.970;4.614;2023-08-17T08:30:06;24.90;67.20
17495;DHT22;8864;51.970;4.614;2023-08-17T08:32:34;25.00;67.20
17495;DHT22;8864;51.970;4.614;2023-08-17T08:35:02;25.00;67.30
17495;DHT22;8864;51.970;4.614;2023-08-17T08:37:28;24.90;67.30
17495;DHT22;8864;51.970;4.614;2023-08-17T08:39:55;24.90;67.30
17495;DHT22;8864;51.970;4.614;2023-08-17T08:42:23;24.90;67.40
17495;DHT22;8864;51.970;4.614;2023-08-17T08:44:51;24.90;67.30
17495;DHT22;8864;51.970;4.614;2023-08-17T08:47:18;25.00;67.30
17495;DHT22;8864;51.970;4.614;2023-08-17T08:49:50;25.00;67.30
17495;DHT22;8864;51.970;4.614;2023-08-17T08:52:23;24.90;67.30
17495;DHT22;8864;51.970;4.614;2023-08-17T08:54:54;24.90;67.30
17495;DHT22;8864;51.970;4.614;2023-08-17T08:57:24;25.00;67.30
17495;DHT22;8864;51.970;4.614;2023-08-17T08:59:55;24.90;67.30
17495;DHT22;8864;51.970;4.614;2023-08-17T09:02:23;24.90;67.30
17495;DHT22;8864;51.970;4.614;2023-08-17T09:04:52;25.00;67.30
17495;DHT22;8864;51.970;4.614;2023-08-17T09:07:19;24.90;67.30
17495;DHT22;8864;51.970;4.614;2023-08-17T09:09:48;25.00;67.30
17495;DHT22;8864;51.970;4.614;2023-08-17T09:12:15;24.90;67.30
17495;DHT22;8864;51.970;4.614;2023-08-17T09:14:42;24.90;67.30
17495;DHT22;8864;51.970;4.614;2023-08-17T09:17:08;24.90;67.30
17495;DHT22;8864;51.970;4.614;2023-08-17T09:19:36;24.90;67.30
17495;DHT22;8864;51.970;4.614;2023-08-17T09:22:04;25.00;67.30
17495;DHT22;8864;51.970;4.614;2023-08-17T09:24:34;25.00;67.30
17495;DHT22;8864;51.970;4.614;2023-08-17T09:27:02;25.00;67.30
17495;DHT22;8864;51.970;4.614;2023-08-17T09:29:30;25.00;67.30
17495;DHT22;8864;51.970;4.614;2023-08-17T09:32:04;25.00;67.30
17495;DHT22;8864;51.970;4.614;2023-08-17T09:34:32;25.00;67.30
17495;DHT22;8864;51.970;4.614;2023-08-17T09:37:04;25.00;67.40
17495;DHT22;8864;51.970;4.614;2023-08-17T09:39:30;25.00;67.40
17495;DHT22;8864;51.970;4.614;2023-08-17T09:41:58;24.90;67.40
17495;DHT22;8864;51.970;4.614;2023-08-17T09:44:25;24.90;67.40
17495;DHT22;8864;51.970;4.614;2023-08-17T09:46:55;25.00;67.50
17495;DHT22;8864;51.970;4.614;2023-08-17T09:49:23;25.00;67.50
17495;DHT22;8864;51.970;4.614;2023-08-17T09:51:50;25.00;67.50
17495;DHT22;8864;51.970;4.614;2023-08-17T09:54:23;25.00;67.50
17495;DHT22;8864;51.970;4.614;2023-08-17T09:56:53;25.00;67.50
17495;DHT22;8864;51.970;4.614;2023-08-17T09:59:20;25.00;67.60
17495;DHT22;8864;51.970;4.614;2023-08-17T10:01:50;25.00;67.60
17495;DHT22;8864;51.970;4.614;2023-08-17T10:04:20;25.00;67.50
17495;DHT22;8864;51.970;4.614;2023-08-17T10:06:49;25.00;67.60
17495;DHT22;8864;51.970;4.614;2023-08-17T10:09:25;25.00;67.60
17495;DHT22;8864;51.970;4.614;2023-08-17T10:11:54;25.00;67.60
17495;DHT22;8864;51.970;4.614;2023-08-17T10:14:28;25.00;67.70
17495;DHT22;8864;51.970;4.614;2023-08-17T10:16:59;25.00;67.70
17495;DHT22;8864;51.970;4.614;2023-08-17T10:19:36;25.00;67.70
17495;DHT22;8864;51.970;4.614;2023-08-17T10:22:11;25.00;67.70
17495;DHT22;8864;51.970;4.614;2023-08-17T10:24:40;25.00;67.80
17495;DHT22;8864;51.970;4.614;2023-08-17T10:27:10;25.00;67.80
17495;DHT22;8864;51.970;4.614;2023-08-17T10:29:38;25.00;67.80
17495;DHT22;8864;51.970;4.614;2023-08-17T10:32:06;25.00;67.80
17495;DHT22;8864;51.970;4.614;2023-08-17T10:34:34;25.00;67.80
17495;DHT22;8864;51.970;4.614;2023-08-17T10:37:01;25.00;67.80
17495;DHT22;8864;51.970;4.614;2023-08-17T10:39:29;25.00;67.80
17495;DHT22;8864;51.970;4.614;2023-08-17T10:41:58;25.10;68.00
17495;DHT22;8864;51.970;4.614;2023-08-17T10:44:40;25.10;68.00
17495;DHT22;8864;51.970;4.614;2023-08-17T10:47:21;25.00;67.90
17495;DHT22;8864;51.970;4.614;2023-08-17T10:49:49;25.00;67.90
17495;DHT22;8864;51.970;4.614;2023-08-17T10:52:28;25.10;68.00
17495;DHT22;8864;51.970;4.614;2023-08-17T10:54:55;25.10;68.00
17495;DHT22;8864;51.970;4.614;2023-08-17T10:57:35;25.10;68.00
17495;DHT22;8864;51.970;4.614;2023-08-17T11:00:22;25.10;68.00
17495;DHT22;8864;51.970;4.614;2023-08-17T11:02:53;25.10;68.10
17495;DHT22;8864;51.970;4.614;2023-08-17T11:05:41;25.10;68.10
17495;DHT22;8864;51.970;4.614;2023-08-17T11:08:10;25.10;68.10
17495;DHT22;8864;51.970;4.614;2023-08-17T11:10:39;25.10;68.10
17495;DHT22;8864;51.970;4.614;2023-08-17T11:13:07;25.10;68.10
17495;DHT22;8864;51.970;4.614;2023-08-17T11:15:38;25.20;68.20
17495;DHT22;8864;51.970;4.614;2023-08-17T11:18:08;25.20;68.20
17495;DHT22;8864;51.970;4.614;2023-08-17T11:20:36;25.20;68.20
17495;DHT22;8864;51.970;4.614;2023-08-17T11:23:04;25.20;68.20
17495;DHT22;8864;51.970;4.614;2023-08-17T11:25:32;25.20;68.20
17495;DHT22;8864;51.970;4.614;2023-08-17T11:28:00;25.20;68.20
17495;DHT22;8864;51.970;4.614;2023-08-17T11:30:29;25.20;68.20
17495;DHT22;8864;51.970;4.614;2023-08-17T11:32:56;25.20;68.20
17495;DHT22;8864;51.970;4.614;2023-08-17T11:35:23;25.20;68.20
17495;DHT22;8864;51.970;4.614;2023-08-17T11:37:50;25.20;68.30
17495;DHT22;8864;51.970;4.614;2023-08-17T11:40:17;25.20;68.20
17495;DHT22;8864;51.970;4.614;2023-08-17T11:42:46;25.20;68.20
17495;DHT22;8864;51.970;4.614;2023-08-17T11:45:13;25.20;68.20
17495;DHT22;8864;51.970;4.614;2023-08-17T11:47:42;25.20;68.20
17495;DHT22;8864;51.970;4.614;2023-08-17T11:50:10;25.20;68.20
17495;DHT22;8864;51.970;4.614;2023-08-17T11:52:38;25.20;68.20
17495;DHT22;8864;51.970;4.614;2023-08-17T11:55:06;25.20;68.20
17495;DHT22;8864;51.970;4.614;2023-08-17T11:57:35;25.20;68.20
17495;DHT22;8864;51.970;4.614;2023-08-17T12:00:04;25.30;68.30
17495;DHT22;8864;51.970;4.614;2023-08-17T12:02:32;25.30;68.30
17495;DHT22;8864;51.970;4.614;2023-08-17T12:05:05;25.20;68.20
17495;DHT22;8864;51.970;4.614;2023-08-17T12:07:33;25.30;68.20
17495;DHT22;8864;51.970;4.614;2023-08-17T12:10:00;25.30;68.20
17495;DHT22;8864;51.970;4.614;2023-08-17T12:12:29;25.30;68.30
17495;DHT22;8864;51.970;4.614;2023-08-17T12:14:57;25.30;68.30
17495;DHT22;8864;51.970;4.614;2023-08-17T12:17:24;25.30;68.30
17495;DHT22;8864;51.970;4.614;2023-08-17T12:19:55;25.30;68.20
17495;DHT22;8864;51.970;4.614;2023-08-17T12:22:25;25.30;68.20
17495;DHT22;8864;51.970;4.614;2023-08-17T12:24:52;25.30;68.20
17495;DHT22;8864;51.970;4.614;2023-08-17T12:27:22;25.30;68.20
17495;DHT22;8864;51.970;4.614;2023-08-17T12:29:51;25.30;68.20
17495;DHT22;8864;51.970;4.614;2023-08-17T12:32:19;25.40;69.10
17495;DHT22;8864;51.970;4.614;2023-08-17T12:34:49;25.30;68.20
17495;DHT22;8864;51.970;4.614;2023-08-17T12:37:19;25.40;68.30
17495;DHT22;8864;51.970;4.614;2023-08-17T12:39:48;25.40;68.30
17495;DHT22;8864;51.970;4.614;2023-08-17T12:42:15;25.40;68.30
17495;DHT22;8864;51.970;4.614;2023-08-17T12:44:42;25.30;68.30
17495;DHT22;8864;51.970;4.614;2023-08-17T12:47:10;25.40;68.30
17495;DHT22;8864;51.970;4.614;2023-08-17T12:49:37;25.40;68.30
17495;DHT22;8864;51.970;4.614;2023-08-17T12:52:06;25.40;68.30
17495;DHT22;8864;51.970;4.614;2023-08-17T12:54:33;25.40;68.30
17495;DHT22;8864;51.970;4.614;2023-08-17T12:57:01;25.40;68.30
17495;DHT22;8864;51.970;4.614;2023-08-17T12:59:28;25.40;68.30
17495;DHT22;8864;51.970;4.614;2023-08-17T13:01:55;25.40;68.30
17495;DHT22;8864;51.970;4.614;2023-08-17T13:04:22;25.40;68.30
17495;DHT22;8864;51.970;4.614;2023-08-17T13:06:49;25.40;68.30
17495;DHT22;8864;51.970;4.614;2023-08-17T13:09:16;25.40;68.20
17495;DHT22;8864;51.970;4.614;2023-08-17T13:11:44;25.40;68.30
17495;DHT22;8864;51.970;4.614;2023-08-17T13:14:14;25.40;68.30
17495;DHT22;8864;51.970;4.614;2023-08-17T13:16:41;25.40;68.30
17495;DHT22;8864;51.970;4.614;2023-08-17T13:19:08;25.40;68.30
17495;DHT22;8864;51.970;4.614;2023-08-17T13:21:35;25.40;68.30
17495;DHT22;8864;51.970;4.614;2023-08-17T13:24:01;25.40;68.30
17495;DHT22;8864;51.970;4.614;2023-08-17T13:26:29;25.40;68.30
17495;DHT22;8864;51.970;4.614;2023-08-17T13:28:56;25.40;68.30
17495;DHT22;8864;51.970;4.614;2023-08-17T13:31:24;25.40;68.30
17495;DHT22;8864;51.970;4.614;2023-08-17T13:33:51;25.40;68.30
17495;DHT22;8864;51.970;4.614;2023-08-17T13:36:19;25.40;68.30
17495;DHT22;8864;51.970;4.614;2023-08-17T13:38:45;25.40;68.30
17495;DHT22;8864;51.970;4.614;2023-08-17T13:41:13;25.40;68.30
17495;DHT22;8864;51.970;4.614;2023-08-17T13:43:40;25.40;68.30
17495;DHT22;8864;51.970;4.614;2023-08-17T13:46:07;25.40;68.30
17495;DHT22;8864;51.970;4.614;2023-08-17T13:48:35;25.40;68.30
17495;DHT22;8864;51.970;4.614;2023-08-17T13:51:04;25.40;68.30
17495;DHT22;8864;51.970;4.614;2023-08-17T13:53:31;25.40;68.30
17495;DHT22;8864;51.970;4.614;2023-08-17T13:55:58;25.40;68.30
17495;DHT22;8864;51.970;4.614;2023-08-17T13:58:25;25.50;68.30
17495;DHT22;8864;51.970;4.614;2023-08-17T14:00:52;25.40;68.30
17495;DHT22;8864;51.970;4.614;2023-08-17T14:03:19;25.40;68.30
17495;DHT22;8864;51.970;4.614;2023-08-17T14:05:47;25.40;68.30
17495;DHT22;8864;51.970;4.614;2023-08-17T14:08:14;25.40;68.30
17495;DHT22;8864;51.970;4.614;2023-08-17T14:10:41;25.50;68.30
17495;DHT22;8864;51.970;4.614;2023-08-17T14:13:08;25.50;68.30
17495;DHT22;8864;51.970;4.614;2023-08-17T14:15:35;25.50;68.30
17495;DHT22;8864;51.970;4.614;2023-08-17T14:18:02;25.50;68.30
17495;DHT22;8864;51.970;4.614;2023-08-17T14:20:29;25.50;68.30
17495;DHT22;8864;51.970;4.614;2023-08-17T14:22:58;25.40;68.30
17495;DHT22;8864;51.970;4.614;2023-08-17T14:25:25;25.50;68.30
17495;DHT22;8864;51.970;4.614;2023-08-17T14:27:52;25.50;68.30
17495;DHT22;8864;51.970;4.614;2023-08-17T14:30:19;25.50;68.30
17495;DHT22;8864;51.970;4.614;2023-08-17T14:32:46;25.50;68.30
17495;DHT22;8864;51.970;4.614;2023-08-17T14:35:13;25.50;68.30
17495;DHT22;8864;51.970;4.614;2023-08-17T14:37:40;25.50;68.40
17495;DHT22;8864;51.970;4.614;2023-08-17T14:40:09;25.50;68.30
17495;DHT22;8864;51.970;4.614;2023-08-17T14:42:37;25.50;68.30
17495;DHT22;8864;51.970;4.614;2023-08-17T14:45:04;25.50;68.30
17495;DHT22;8864;51.970;4.614;2023-08-17T14:47:32;25.50;68.30
17495;DHT22;8864;51.970;4.614;2023-08-17T14:49:58;25.50;68.30
17495;DHT22;8864;51.970;4.614;2023-08-17T14:52:25;25.50;68.30
17495;DHT22;8864;51.970;4.614;2023-08-17T14:54:52;25.50;68.30
17495;DHT22;8864;51.970;4.614;2023-08-17T14:57:21;25.50;68.30
17495;DHT22;8864;51.970;4.614;2023-08-17T14:59:48;25.50;68.30
17495;DHT22;8864;51.970;4.614;2023-08-17T15:02:15;25.50;68.40
17495;DHT22;8864;51.970;4.614;2023-08-17T15:04:44;25.50;68.30
17495;DHT22;8864;51.970;4.614;2023-08-17T15:07:11;25.50;68.30
17495;DHT22;8864;51.970;4.614;2023-08-17T15:09:38;25.50;68.30
17495;DHT22;8864;51.970;4.614;2023-08-17T15:12:05;25.50;68.30
17495;DHT22;8864;51.970;4.614;2023-08-17T15:14:33;25.50;68.30
17495;DHT22;8864;51.970;4.614;2023-08-17T15:17:00;25.50;68.30
17495;DHT22;8864;51.970;4.614;2023-08-17T15:19:27;25.50;68.30
17495;DHT22;8864;51.970;4.614;2023-08-17T15:21:55;25.50;68.30
17495;DHT22;8864;51.970;4.614;2023-08-17T15:24:22;25.50;68.30
17495;DHT22;8864;51.970;4.614;2023-08-17T15:26:48;25.50;68.30
17495;DHT22;8864;51.970;4.614;2023-08-17T15:29:15;25.50;68.30
17495;DHT22;8864;51.970;4.614;2023-08-17T15:31:43;25.50;68.30
17495;DHT22;8864;51.970;4.614;2023-08-17T15:34:10;25.50;68.30
17495;DHT22;8864;51.970;4.614;2023-08-17T15:36:37;25.50;68.30
17495;DHT22;8864;51.970;4.614;2023-08-17T15:39:04;25.50;68.30
17495;DHT22;8864;51.970;4.614;2023-08-17T15:41:34;25.50;68.30
17495;DHT22;8864;51.970;4.614;2023-08-17T15:44:01;25.50;68.30
17495;DHT22;8864;51.970;4.614;2023-08-17T15:46:28;25.50;68.30
17495;DHT22;8864;51.970;4.614;2023-08-17T15:48:57;25.50;68.30